sensor_id;sensor_type;location;lat;lon;timestamp;P1;durP1;ratioP1;P2;durP2;ratioP2
56141;SDS011;42018;48.588;10.836;2022-10-15T00:02:39;3.92;;;1.20;;
56141;SDS011;42018;48.588;10.836;2022-10-15T00:05:24;3.28;;;1.20;;
56141;SDS011;42018;48.588;10.836;2022-10-15T00:08:10;2.03;;;1.00;;
56141;SDS011;42018;48.588;10.836;2022-10-15T00:11:01;3.75;;;1.40;;
56141;SDS011;42018;48.588;10.836;2022-10-15T00:13:52;2.97;;;0.93;;
56141;SDS011;42018;48.588;10.836;2022-10-15T00:16:38;2.63;;;1.17;;
56141;SDS011;42018;48.588;10.836;2022-10-15T00:19:24;2.70;;;1.10;;
56141;SDS011;42018;48.588;10.836;2022-10-15T00:22:09;2.78;;;1.13;;
56141;SDS011;42018;48.588;10.836;2022-10-15T00:24:55;2.63;;;1.20;;
56141;SDS011;42018;48.588;10.836;2022-10-15T00:27:40;1.65;;;1.02;;
56141;SDS011;42018;48.588;10.836;2022-10-15T00:30:25;2.17;;;1.20;;
56141;SDS011;42018;48.588;10.836;2022-10-15T00:33:11;2.83;;;1.30;;
56141;SDS011;42018;48.588;10.836;2022-10-15T00:35:57;3.00;;;1.20;;
56141;SDS011;42018;48.588;10.836;2022-10-15T00:38:43;2.95;;;1.10;;
56141;SDS011;42018;48.588;10.836;2022-10-15T00:41:30;1.73;;;0.90;;
56141;SDS011;42018;48.588;10.836;2022-10-15T00:50:21;2.60;;;1.13;;
56141;SDS011;42018;48.588;10.836;2022-10-15T00:53:08;3.50;;;1.23;;
56141;SDS011;42018;48.588;10.836;2022-10-15T00:55:54;1.63;;;1.00;;
56141;SDS011;42018;48.588;10.836;2022-10-15T00:58:39;1.88;;;1.00;;
56141;SDS011;42018;48.588;10.836;2022-10-15T01:01:25;1.67;;;1.00;;
56141;SDS011;42018;48.588;10.836;2022-10-15T01:04:10;2.03;;;1.02;;
56141;SDS011;42018;48.588;10.836;2022-10-15T01:06:56;1.50;;;0.90;;
56141;SDS011;42018;48.588;10.836;2022-10-15T01:09:42;0.93;;;0.73;;
56141;SDS011;42018;48.588;10.836;2022-10-15T01:18:48;1.70;;;1.17;;
56141;SDS011;42018;48.588;10.836;2022-10-15T01:21:43;1.10;;;0.90;;
56141;SDS011;42018;48.588;10.836;2022-10-15T01:24:43;1.35;;;0.80;;
56141;SDS011;42018;48.588;10.836;2022-10-15T01:27:37;1.83;;;0.90;;
56141;SDS011;42018;48.588;10.836;2022-10-15T01:36:26;3.00;;;0.95;;
56141;SDS011;42018;48.588;10.836;2022-10-15T01:42:03;2.08;;;0.93;;
56141;SDS011;42018;48.588;10.836;2022-10-15T01:44:58;2.20;;;0.90;;
56141;SDS011;42018;48.588;10.836;2022-10-15T01:47:56;1.35;;;0.80;;
56141;SDS011;42018;48.588;10.836;2022-10-15T01:50:46;1.80;;;0.88;;
56141;SDS011;42018;48.588;10.836;2022-10-15T01:53:34;1.10;;;0.80;;
56141;SDS011;42018;48.588;10.836;2022-10-15T01:56:21;1.42;;;0.80;;
56141;SDS011;42018;48.588;10.836;2022-10-15T01:59:08;1.00;;;0.70;;
56141;SDS011;42018;48.588;10.836;2022-10-15T02:01:54;1.67;;;0.90;;
56141;SDS011;42018;48.588;10.836;2022-10-15T02:04:39;2.97;;;0.90;;
56141;SDS011;42018;48.588;10.836;2022-10-15T02:07:48;1.75;;;0.80;;
56141;SDS011;42018;48.588;10.836;2022-10-15T02:13:32;2.67;;;0.90;;
56141;SDS011;42018;48.588;10.836;2022-10-15T02:16:43;1.58;;;0.80;;
56141;SDS011;42018;48.588;10.836;2022-10-15T02:19:55;1.15;;;0.80;;
56141;SDS011;42018;48.588;10.836;2022-10-15T02:23:08;1.48;;;0.80;;
56141;SDS011;42018;48.588;10.836;2022-10-15T02:25:53;1.63;;;0.70;;
56141;SDS011;42018;48.588;10.836;2022-10-15T02:28:41;1.95;;;0.57;;
56141;SDS011;42018;48.588;10.836;2022-10-15T02:31:29;1.55;;;0.80;;
56141;SDS011;42018;48.588;10.836;2022-10-15T02:34:18;0.85;;;0.65;;
56141;SDS011;42018;48.588;10.836;2022-10-15T02:37:06;0.95;;;0.70;;
56141;SDS011;42018;48.588;10.836;2022-10-15T02:39:52;0.73;;;0.60;;
56141;SDS011;42018;48.588;10.836;2022-10-15T02:42:38;0.98;;;0.63;;
56141;SDS011;42018;48.588;10.836;2022-10-15T02:45:24;2.38;;;0.90;;
56141;SDS011;42018;48.588;10.836;2022-10-15T02:48:09;0.90;;;0.70;;
56141;SDS011;42018;48.588;10.836;2022-10-15T02:50:55;2.78;;;0.70;;
56141;SDS011;42018;48.588;10.836;2022-10-15T02:53:40;0.65;;;0.60;;
56141;SDS011;42018;48.588;10.836;2022-10-15T02:56:25;1.85;;;0.50;;
56141;SDS011;42018;48.588;10.836;2022-10-15T02:59:10;1.40;;;0.60;;
56141;SDS011;42018;48.588;10.836;2022-10-15T03:01:56;1.02;;;0.60;;
56141;SDS011;42018;48.588;10.836;2022-10-15T03:04:41;1.05;;;0.70;;
56141;SDS011;42018;48.588;10.836;2022-10-15T03:07:26;1.70;;;0.60;;
56141;SDS011;42018;48.588;10.836;2022-10-15T03:10:12;1.05;;;0.70;;
56141;SDS011;42018;48.588;10.836;2022-10-15T03:13:01;0.70;;;0.60;;
56141;SDS011;42018;48.588;10.836;2022-10-15T03:15:49;0.63;;;0.50;;
56141;SDS011;42018;48.588;10.836;2022-10-15T03:18:35;1.20;;;0.50;;
56141;SDS011;42018;48.588;10.836;2022-10-15T03:21:20;0.50;;;0.40;;
56141;SDS011;42018;48.588;10.836;2022-10-15T03:24:06;0.55;;;0.45;;
56141;SDS011;42018;48.588;10.836;2022-10-15T03:26:51;0.93;;;0.40;;
56141;SDS011;42018;48.588;10.836;2022-10-15T03:29:37;0.30;;;0.30;;
56141;SDS011;42018;48.588;10.836;2022-10-15T03:32:22;1.58;;;0.47;;
56141;SDS011;42018;48.588;10.836;2022-10-15T03:35:07;1.13;;;0.68;;
56141;SDS011;42018;48.588;10.836;2022-10-15T03:37:53;1.65;;;0.50;;
56141;SDS011;42018;48.588;10.836;2022-10-15T03:40:38;0.40;;;0.40;;
56141;SDS011;42018;48.588;10.836;2022-10-15T03:43:24;0.88;;;0.60;;
56141;SDS011;42018;48.588;10.836;2022-10-15T03:46:09;1.15;;;0.60;;
56141;SDS011;42018;48.588;10.836;2022-10-15T03:48:55;0.40;;;0.40;;
56141;SDS011;42018;48.588;10.836;2022-10-15T03:51:40;1.63;;;0.50;;
56141;SDS011;42018;48.588;10.836;2022-10-15T03:54:26;1.38;;;0.50;;
56141;SDS011;42018;48.588;10.836;2022-10-15T03:57:11;0.50;;;0.50;;
56141;SDS011;42018;48.588;10.836;2022-10-15T03:59:56;1.35;;;0.60;;
56141;SDS011;42018;48.588;10.836;2022-10-15T04:02:42;0.80;;;0.47;;
56141;SDS011;42018;48.588;10.836;2022-10-15T04:05:27;1.27;;;0.50;;
56141;SDS011;42018;48.588;10.836;2022-10-15T04:08:13;2.28;;;0.65;;
56141;SDS011;42018;48.588;10.836;2022-10-15T04:10:58;1.13;;;0.50;;
56141;SDS011;42018;48.588;10.836;2022-10-15T04:13:47;1.23;;;0.50;;
56141;SDS011;42018;48.588;10.836;2022-10-15T04:16:33;0.68;;;0.50;;
56141;SDS011;42018;48.588;10.836;2022-10-15T04:19:18;3.72;;;0.68;;
56141;SDS011;42018;48.588;10.836;2022-10-15T04:22:04;0.32;;;0.32;;
56141;SDS011;42018;48.588;10.836;2022-10-15T04:24:49;0.57;;;0.43;;
56141;SDS011;42018;48.588;10.836;2022-10-15T04:27:34;0.50;;;0.40;;
56141;SDS011;42018;48.588;10.836;2022-10-15T04:30:20;0.75;;;0.52;;
56141;SDS011;42018;48.588;10.836;2022-10-15T04:33:05;0.70;;;0.40;;
56141;SDS011;42018;48.588;10.836;2022-10-15T04:36:24;1.30;;;0.60;;
56141;SDS011;42018;48.588;10.836;2022-10-15T04:39:03;1.30;;;0.50;;
56141;SDS011;42018;48.588;10.836;2022-10-15T04:41:49;0.30;;;0.30;;
56141;SDS011;42018;48.588;10.836;2022-10-15T04:44:34;1.90;;;0.50;;
56141;SDS011;42018;48.588;10.836;2022-10-15T04:47:20;0.52;;;0.43;;
56141;SDS011;42018;48.588;10.836;2022-10-15T04:50:05;0.77;;;0.50;;
56141;SDS011;42018;48.588;10.836;2022-10-15T04:52:51;0.40;;;0.40;;
56141;SDS011;42018;48.588;10.836;2022-10-15T04:55:36;0.85;;;0.50;;
56141;SDS011;42018;48.588;10.836;2022-10-15T04:58:21;0.57;;;0.50;;
56141;SDS011;42018;48.588;10.836;2022-10-15T05:01:07;0.75;;;0.40;;
56141;SDS011;42018;48.588;10.836;2022-10-15T05:06:42;0.50;;;0.38;;
56141;SDS011;42018;48.588;10.836;2022-10-15T05:09:27;0.80;;;0.50;;
56141;SDS011;42018;48.588;10.836;2022-10-15T05:12:13;0.50;;;0.40;;
56141;SDS011;42018;48.588;10.836;2022-10-15T05:14:58;0.70;;;0.50;;
56141;SDS011;42018;48.588;10.836;2022-10-15T05:17:43;0.65;;;0.40;;
56141;SDS011;42018;48.588;10.836;2022-10-15T05:20:29;1.70;;;0.75;;
56141;SDS011;42018;48.588;10.836;2022-10-15T05:23:14;2.58;;;0.60;;
56141;SDS011;42018;48.588;10.836;2022-10-15T05:26:00;0.50;;;0.50;;
56141;SDS011;42018;48.588;10.836;2022-10-15T05:28:47;0.63;;;0.50;;
56141;SDS011;42018;48.588;10.836;2022-10-15T05:31:33;0.68;;;0.45;;
56141;SDS011;42018;48.588;10.836;2022-10-15T05:34:21;1.15;;;0.50;;
56141;SDS011;42018;48.588;10.836;2022-10-15T05:37:06;1.13;;;0.50;;
56141;SDS011;42018;48.588;10.836;2022-10-15T05:39:52;2.22;;;0.52;;
56141;SDS011;42018;48.588;10.836;2022-10-15T05:42:37;1.02;;;0.63;;
56141;SDS011;42018;48.588;10.836;2022-10-15T05:45:22;0.75;;;0.43;;
56141;SDS011;42018;48.588;10.836;2022-10-15T05:48:08;1.65;;;0.60;;
56141;SDS011;42018;48.588;10.836;2022-10-15T05:50:56;0.65;;;0.45;;
56141;SDS011;42018;48.588;10.836;2022-10-15T05:53:45;0.57;;;0.50;;
56141;SDS011;42018;48.588;10.836;2022-10-15T05:56:31;1.40;;;0.68;;
56141;SDS011;42018;48.588;10.836;2022-10-15T05:59:16;0.93;;;0.50;;
56141;SDS011;42018;48.588;10.836;2022-10-15T06:02:02;0.50;;;0.50;;
56141;SDS011;42018;48.588;10.836;2022-10-15T06:04:47;0.50;;;0.50;;
56141;SDS011;42018;48.588;10.836;2022-10-15T06:07:33;0.50;;;0.50;;
56141;SDS011;42018;48.588;10.836;2022-10-15T06:10:18;0.90;;;0.50;;
56141;SDS011;42018;48.588;10.836;2022-10-15T06:13:04;0.98;;;0.40;;
56141;SDS011;42018;48.588;10.836;2022-10-15T06:15:50;0.60;;;0.40;;
56141;SDS011;42018;48.588;10.836;2022-10-15T06:18:36;0.40;;;0.40;;
56141;SDS011;42018;48.588;10.836;2022-10-15T06:21:22;0.70;;;0.35;;
56141;SDS011;42018;48.588;10.836;2022-10-15T06:24:08;0.40;;;0.40;;
56141;SDS011;42018;48.588;10.836;2022-10-15T06:26:53;0.30;;;0.30;;
56141;SDS011;42018;48.588;10.836;2022-10-15T06:29:39;0.73;;;0.40;;
56141;SDS011;42018;48.588;10.836;2022-10-15T06:32:24;0.30;;;0.30;;
56141;SDS011;42018;48.588;10.836;2022-10-15T06:35:10;0.70;;;0.50;;
56141;SDS011;42018;48.588;10.836;2022-10-15T06:37:55;0.80;;;0.50;;
56141;SDS011;42018;48.588;10.836;2022-10-15T06:40:44;1.48;;;0.57;;
56141;SDS011;42018;48.588;10.836;2022-10-15T06:43:29;0.40;;;0.40;;
56141;SDS011;42018;48.588;10.836;2022-10-15T06:46:14;0.55;;;0.40;;
56141;SDS011;42018;48.588;10.836;2022-10-15T06:49:00;0.52;;;0.50;;
56141;SDS011;42018;48.588;10.836;2022-10-15T06:51:45;0.57;;;0.50;;
56141;SDS011;42018;48.588;10.836;2022-10-15T06:54:31;0.98;;;0.50;;
56141;SDS011;42018;48.588;10.836;2022-10-15T06:57:16;1.55;;;0.50;;
56141;SDS011;42018;48.588;10.836;2022-10-15T07:00:02;1.88;;;0.70;;
56141;SDS011;42018;48.588;10.836;2022-10-15T07:02:48;1.63;;;0.60;;
56141;SDS011;42018;48.588;10.836;2022-10-15T07:05:34;0.88;;;0.60;;
56141;SDS011;42018;48.588;10.836;2022-10-15T07:08:20;1.38;;;0.52;;
56141;SDS011;42018;48.588;10.836;2022-10-15T07:11:06;1.10;;;0.60;;
56141;SDS011;42018;48.588;10.836;2022-10-15T07:13:53;0.82;;;0.70;;
56141;SDS011;42018;48.588;10.836;2022-10-15T07:16:38;0.30;;;0.30;;
56141;SDS011;42018;48.588;10.836;2022-10-15T07:19:24;0.50;;;0.50;;
56141;SDS011;42018;48.588;10.836;2022-10-15T07:22:10;0.77;;;0.60;;
56141;SDS011;42018;48.588;10.836;2022-10-15T07:24:55;1.70;;;0.80;;
56141;SDS011;42018;48.588;10.836;2022-10-15T07:27:41;0.95;;;0.50;;
56141;SDS011;42018;48.588;10.836;2022-10-15T07:30:26;0.65;;;0.47;;
56141;SDS011;42018;48.588;10.836;2022-10-15T07:33:12;2.53;;;1.30;;
56141;SDS011;42018;48.588;10.836;2022-10-15T07:35:57;2.60;;;1.13;;
56141;SDS011;42018;48.588;10.836;2022-10-15T07:38:43;1.23;;;0.90;;
56141;SDS011;42018;48.588;10.836;2022-10-15T07:41:29;2.20;;;0.63;;
56141;SDS011;42018;48.588;10.836;2022-10-15T07:44:15;0.65;;;0.40;;
56141;SDS011;42018;48.588;10.836;2022-10-15T07:47:00;1.35;;;0.40;;
56141;SDS011;42018;48.588;10.836;2022-10-15T07:49:45;0.38;;;0.30;;
56141;SDS011;42018;48.588;10.836;2022-10-15T07:52:31;0.40;;;0.40;;
56141;SDS011;42018;48.588;10.836;2022-10-15T07:55:16;0.65;;;0.47;;
56141;SDS011;42018;48.588;10.836;2022-10-15T07:58:02;0.50;;;0.50;;
56141;SDS011;42018;48.588;10.836;2022-10-15T08:00:49;0.98;;;0.40;;
56141;SDS011;42018;48.588;10.836;2022-10-15T08:03:35;2.05;;;0.57;;
56141;SDS011;42018;48.588;10.836;2022-10-15T08:06:21;0.65;;;0.50;;
56141;SDS011;42018;48.588;10.836;2022-10-15T08:09:06;0.40;;;0.40;;
56141;SDS011;42018;48.588;10.836;2022-10-15T08:11:52;0.40;;;0.40;;
56141;SDS011;42018;48.588;10.836;2022-10-15T08:14:37;0.40;;;0.40;;
56141;SDS011;42018;48.588;10.836;2022-10-15T08:17:23;0.47;;;0.40;;
56141;SDS011;42018;48.588;10.836;2022-10-15T08:20:08;0.50;;;0.43;;
56141;SDS011;42018;48.588;10.836;2022-10-15T08:22:54;0.52;;;0.43;;
56141;SDS011;42018;48.588;10.836;2022-10-15T08:25:40;1.90;;;0.50;;
56141;SDS011;42018;48.588;10.836;2022-10-15T08:28:29;0.63;;;0.50;;
56141;SDS011;42018;48.588;10.836;2022-10-15T08:31:16;0.38;;;0.38;;
56141;SDS011;42018;48.588;10.836;2022-10-15T08:34:03;1.45;;;0.57;;
56141;SDS011;42018;48.588;10.836;2022-10-15T08:36:48;0.57;;;0.45;;
56141;SDS011;42018;48.588;10.836;2022-10-15T08:39:34;1.02;;;0.52;;
56141;SDS011;42018;48.588;10.836;2022-10-15T08:42:20;0.80;;;0.55;;
56141;SDS011;42018;48.588;10.836;2022-10-15T08:45:13;1.35;;;0.50;;
56141;SDS011;42018;48.588;10.836;2022-10-15T08:48:06;0.40;;;0.40;;
56141;SDS011;42018;48.588;10.836;2022-10-15T08:51:03;0.65;;;0.40;;
56141;SDS011;42018;48.588;10.836;2022-10-15T08:53:55;1.05;;;0.50;;
56141;SDS011;42018;48.588;10.836;2022-10-15T08:56:46;1.48;;;0.55;;
56141;SDS011;42018;48.588;10.836;2022-10-15T08:59:55;0.45;;;0.45;;
56141;SDS011;42018;48.588;10.836;2022-10-15T09:05:47;0.85;;;0.40;;
56141;SDS011;42018;48.588;10.836;2022-10-15T09:11:49;0.70;;;0.60;;
56141;SDS011;42018;48.588;10.836;2022-10-15T09:14:32;1.13;;;0.40;;
56141;SDS011;42018;48.588;10.836;2022-10-15T09:17:22;1.10;;;0.50;;
56141;SDS011;42018;48.588;10.836;2022-10-15T09:20:12;2.28;;;0.60;;
56141;SDS011;42018;48.588;10.836;2022-10-15T09:23:00;0.68;;;0.45;;
56141;SDS011;42018;48.588;10.836;2022-10-15T09:26:06;2.28;;;0.43;;
56141;SDS011;42018;48.588;10.836;2022-10-15T09:31:46;1.67;;;0.50;;
56141;SDS011;42018;48.588;10.836;2022-10-15T09:43:42;0.98;;;0.32;;
56141;SDS011;42018;48.588;10.836;2022-10-15T09:46:30;0.30;;;0.30;;
56141;SDS011;42018;48.588;10.836;2022-10-15T09:49:17;1.00;;;0.35;;
56141;SDS011;42018;48.588;10.836;2022-10-15T09:58:13;0.47;;;0.30;;
56141;SDS011;42018;48.588;10.836;2022-10-15T10:01:03;0.30;;;0.30;;
56141;SDS011;42018;48.588;10.836;2022-10-15T10:04:07;1.52;;;0.47;;
56141;SDS011;42018;48.588;10.836;2022-10-15T10:07:02;1.50;;;0.50;;
56141;SDS011;42018;48.588;10.836;2022-10-15T10:09:52;0.50;;;0.50;;
56141;SDS011;42018;48.588;10.836;2022-10-15T10:12:40;1.17;;;0.50;;
56141;SDS011;42018;48.588;10.836;2022-10-15T10:15:34;1.30;;;0.50;;
56141;SDS011;42018;48.588;10.836;2022-10-15T10:18:23;1.90;;;0.50;;
56141;SDS011;42018;48.588;10.836;2022-10-15T10:21:23;0.98;;;0.45;;
56141;SDS011;42018;48.588;10.836;2022-10-15T10:24:28;0.98;;;0.50;;
56141;SDS011;42018;48.588;10.836;2022-10-15T10:30:03;1.02;;;0.80;;
56141;SDS011;42018;48.588;10.836;2022-10-15T10:32:55;1.10;;;0.40;;
56141;SDS011;42018;48.588;10.836;2022-10-15T10:35:45;0.40;;;0.40;;
56141;SDS011;42018;48.588;10.836;2022-10-15T10:38:34;1.15;;;0.50;;
56141;SDS011;42018;48.588;10.836;2022-10-15T10:41:21;0.68;;;0.50;;
56141;SDS011;42018;48.588;10.836;2022-10-15T10:44:07;0.47;;;0.47;;
56141;SDS011;42018;48.588;10.836;2022-10-15T10:49:53;0.60;;;0.50;;
56141;SDS011;42018;48.588;10.836;2022-10-15T10:52:42;0.90;;;0.50;;
56141;SDS011;42018;48.588;10.836;2022-10-15T10:55:30;1.13;;;0.60;;
56141;SDS011;42018;48.588;10.836;2022-10-15T10:58:22;1.60;;;0.57;;
56141;SDS011;42018;48.588;10.836;2022-10-15T11:01:11;0.85;;;0.60;;
56141;SDS011;42018;48.588;10.836;2022-10-15T11:03:57;1.98;;;0.60;;
56141;SDS011;42018;48.588;10.836;2022-10-15T11:16:00;3.20;;;0.70;;
56141;SDS011;42018;48.588;10.836;2022-10-15T11:28:28;2.67;;;0.60;;
56141;SDS011;42018;48.588;10.836;2022-10-15T11:34:38;1.55;;;0.70;;
56141;SDS011;42018;48.588;10.836;2022-10-15T11:44:05;1.50;;;0.70;;
56141;SDS011;42018;48.588;10.836;2022-10-15T11:53:47;1.10;;;0.70;;
56141;SDS011;42018;48.588;10.836;2022-10-15T11:56:42;1.83;;;0.70;;
56141;SDS011;42018;48.588;10.836;2022-10-15T12:02:36;2.08;;;0.82;;
56141;SDS011;42018;48.588;10.836;2022-10-15T12:05:25;1.40;;;0.70;;
56141;SDS011;42018;48.588;10.836;2022-10-15T12:08:19;2.28;;;0.70;;
56141;SDS011;42018;48.588;10.836;2022-10-15T12:20:15;3.22;;;0.82;;
56141;SDS011;42018;48.588;10.836;2022-10-15T12:23:03;2.40;;;0.80;;
56141;SDS011;42018;48.588;10.836;2022-10-15T12:25:48;1.15;;;0.68;;
56141;SDS011;42018;48.588;10.836;2022-10-15T12:28:34;1.35;;;0.70;;
56141;SDS011;42018;48.588;10.836;2022-10-15T12:31:20;2.50;;;0.60;;
56141;SDS011;42018;48.588;10.836;2022-10-15T12:34:06;2.13;;;0.80;;
56141;SDS011;42018;48.588;10.836;2022-10-15T12:37:28;1.75;;;0.70;;
56141;SDS011;42018;48.588;10.836;2022-10-15T12:43:14;2.30;;;0.75;;
56141;SDS011;42018;48.588;10.836;2022-10-15T12:46:02;1.27;;;0.70;;
56141;SDS011;42018;48.588;10.836;2022-10-15T12:48:50;1.38;;;0.60;;
56141;SDS011;42018;48.588;10.836;2022-10-15T12:51:40;2.15;;;0.82;;
56141;SDS011;42018;48.588;10.836;2022-10-15T13:00:30;1.05;;;0.55;;
56141;SDS011;42018;48.588;10.836;2022-10-15T13:03:39;2.50;;;0.80;;
56141;SDS011;42018;48.588;10.836;2022-10-15T13:06:29;1.75;;;0.60;;
56141;SDS011;42018;48.588;10.836;2022-10-15T13:09:22;1.15;;;0.60;;
56141;SDS011;42018;48.588;10.836;2022-10-15T13:12:21;1.27;;;0.70;;
56141;SDS011;42018;48.588;10.836;2022-10-15T13:15:09;2.70;;;0.80;;
56141;SDS011;42018;48.588;10.836;2022-10-15T13:17:58;1.02;;;0.60;;
56141;SDS011;42018;48.588;10.836;2022-10-15T13:20:58;2.13;;;0.70;;
56141;SDS011;42018;48.588;10.836;2022-10-15T13:23:44;2.92;;;0.70;;
56141;SDS011;42018;48.588;10.836;2022-10-15T13:26:35;1.77;;;0.70;;
56141;SDS011;42018;48.588;10.836;2022-10-15T13:29:22;1.70;;;0.65;;
56141;SDS011;42018;48.588;10.836;2022-10-15T13:32:11;1.60;;;0.70;;
56141;SDS011;42018;48.588;10.836;2022-10-15T13:37:46;1.58;;;0.65;;
56141;SDS011;42018;48.588;10.836;2022-10-15T13:40:32;3.30;;;0.70;;
56141;SDS011;42018;48.588;10.836;2022-10-15T13:43:22;1.63;;;0.70;;
56141;SDS011;42018;48.588;10.836;2022-10-15T13:46:09;1.35;;;0.68;;
56141;SDS011;42018;48.588;10.836;2022-10-15T13:49:00;1.55;;;0.70;;
56141;SDS011;42018;48.588;10.836;2022-10-15T13:51:55;2.05;;;0.60;;
56141;SDS011;42018;48.588;10.836;2022-10-15T13:54:40;1.38;;;0.70;;
56141;SDS011;42018;48.588;10.836;2022-10-15T13:57:29;0.98;;;0.50;;
56141;SDS011;42018;48.588;10.836;2022-10-15T14:00:19;1.17;;;0.70;;
56141;SDS011;42018;48.588;10.836;2022-10-15T14:03:06;2.00;;;0.60;;
56141;SDS011;42018;48.588;10.836;2022-10-15T14:05:52;0.95;;;0.60;;
56141;SDS011;42018;48.588;10.836;2022-10-15T14:08:39;2.15;;;0.70;;
56141;SDS011;42018;48.588;10.836;2022-10-15T14:11:24;2.05;;;0.60;;
56141;SDS011;42018;48.588;10.836;2022-10-15T14:20:04;1.75;;;0.68;;
56141;SDS011;42018;48.588;10.836;2022-10-15T14:22:50;1.80;;;0.80;;
56141;SDS011;42018;48.588;10.836;2022-10-15T14:25:36;2.35;;;0.77;;
56141;SDS011;42018;48.588;10.836;2022-10-15T14:28:21;2.60;;;0.90;;
56141;SDS011;42018;48.588;10.836;2022-10-15T14:31:08;0.85;;;0.55;;
56141;SDS011;42018;48.588;10.836;2022-10-15T14:40:19;2.05;;;0.60;;
56141;SDS011;42018;48.588;10.836;2022-10-15T14:43:06;2.92;;;0.80;;
56141;SDS011;42018;48.588;10.836;2022-10-15T14:46:00;1.17;;;0.60;;
56141;SDS011;42018;48.588;10.836;2022-10-15T14:48:48;1.33;;;0.60;;
56141;SDS011;42018;48.588;10.836;2022-10-15T14:51:33;2.13;;;0.70;;
56141;SDS011;42018;48.588;10.836;2022-10-15T14:54:20;0.50;;;0.50;;
56141;SDS011;42018;48.588;10.836;2022-10-15T14:57:21;2.25;;;0.52;;
56141;SDS011;42018;48.588;10.836;2022-10-15T15:00:28;2.15;;;0.60;;
56141;SDS011;42018;48.588;10.836;2022-10-15T15:03:18;3.00;;;0.68;;
56141;SDS011;42018;48.588;10.836;2022-10-15T15:06:05;0.70;;;0.50;;
56141;SDS011;42018;48.588;10.836;2022-10-15T15:08:51;1.65;;;0.50;;
56141;SDS011;42018;48.588;10.836;2022-10-15T15:11:37;1.35;;;0.57;;
56141;SDS011;42018;48.588;10.836;2022-10-15T15:14:23;4.35;;;0.60;;
56141;SDS011;42018;48.588;10.836;2022-10-15T15:17:13;1.08;;;0.52;;
56141;SDS011;42018;48.588;10.836;2022-10-15T15:20:00;0.60;;;0.52;;
56141;SDS011;42018;48.588;10.836;2022-10-15T15:22:50;2.85;;;0.73;;
56141;SDS011;42018;48.588;10.836;2022-10-15T15:25:37;2.35;;;0.70;;
56141;SDS011;42018;48.588;10.836;2022-10-15T15:28:24;3.35;;;0.80;;
56141;SDS011;42018;48.588;10.836;2022-10-15T15:31:17;1.55;;;0.90;;
56141;SDS011;42018;48.588;10.836;2022-10-15T15:34:02;1.58;;;0.70;;
56141;SDS011;42018;48.588;10.836;2022-10-15T15:36:48;2.72;;;0.80;;
56141;SDS011;42018;48.588;10.836;2022-10-15T15:39:33;1.38;;;0.65;;
56141;SDS011;42018;48.588;10.836;2022-10-15T15:42:20;1.90;;;0.80;;
56141;SDS011;42018;48.588;10.836;2022-10-15T15:48:15;1.42;;;0.88;;
56141;SDS011;42018;48.588;10.836;2022-10-15T15:51:02;3.97;;;0.88;;
56141;SDS011;42018;48.588;10.836;2022-10-15T15:53:50;1.35;;;0.80;;
56141;SDS011;42018;48.588;10.836;2022-10-15T15:56:35;1.13;;;0.70;;
56141;SDS011;42018;48.588;10.836;2022-10-15T15:59:23;3.22;;;0.93;;
56141;SDS011;42018;48.588;10.836;2022-10-15T16:02:09;1.65;;;0.85;;
56141;SDS011;42018;48.588;10.836;2022-10-15T16:04:55;4.10;;;1.02;;
56141;SDS011;42018;48.588;10.836;2022-10-15T16:07:41;2.03;;;0.70;;
56141;SDS011;42018;48.588;10.836;2022-10-15T16:10:27;2.17;;;0.80;;
56141;SDS011;42018;48.588;10.836;2022-10-15T16:13:13;3.08;;;0.93;;
56141;SDS011;42018;48.588;10.836;2022-10-15T16:15:58;2.47;;;0.82;;
56141;SDS011;42018;48.588;10.836;2022-10-15T16:18:44;1.60;;;0.77;;
56141;SDS011;42018;48.588;10.836;2022-10-15T16:21:29;2.90;;;0.80;;
56141;SDS011;42018;48.588;10.836;2022-10-15T16:24:15;2.35;;;0.85;;
56141;SDS011;42018;48.588;10.836;2022-10-15T16:27:01;1.98;;;0.80;;
56141;SDS011;42018;48.588;10.836;2022-10-15T16:29:46;2.40;;;0.88;;
56141;SDS011;42018;48.588;10.836;2022-10-15T16:32:31;1.23;;;0.80;;
56141;SDS011;42018;48.588;10.836;2022-10-15T16:35:17;2.30;;;0.93;;
56141;SDS011;42018;48.588;10.836;2022-10-15T16:38:02;2.88;;;1.00;;
56141;SDS011;42018;48.588;10.836;2022-10-15T16:40:48;3.50;;;1.10;;
56141;SDS011;42018;48.588;10.836;2022-10-15T16:43:33;2.33;;;1.02;;
56141;SDS011;42018;48.588;10.836;2022-10-15T16:46:19;2.50;;;0.80;;
56141;SDS011;42018;48.588;10.836;2022-10-15T16:49:04;3.97;;;0.98;;
56141;SDS011;42018;48.588;10.836;2022-10-15T16:51:50;3.92;;;0.82;;
56141;SDS011;42018;48.588;10.836;2022-10-15T16:54:35;3.08;;;0.90;;
56141;SDS011;42018;48.588;10.836;2022-10-15T16:57:21;1.52;;;0.80;;
56141;SDS011;42018;48.588;10.836;2022-10-15T17:00:06;2.40;;;0.90;;
56141;SDS011;42018;48.588;10.836;2022-10-15T17:02:52;3.65;;;1.00;;
56141;SDS011;42018;48.588;10.836;2022-10-15T17:05:39;3.53;;;1.20;;
56141;SDS011;42018;48.588;10.836;2022-10-15T17:08:44;1.65;;;1.00;;
56141;SDS011;42018;48.588;10.836;2022-10-15T17:11:33;3.00;;;1.10;;
56141;SDS011;42018;48.588;10.836;2022-10-15T17:14:20;2.45;;;1.35;;
56141;SDS011;42018;48.588;10.836;2022-10-15T17:17:06;1.90;;;1.10;;
56141;SDS011;42018;48.588;10.836;2022-10-15T17:19:51;2.88;;;1.23;;
56141;SDS011;42018;48.588;10.836;2022-10-15T17:22:37;3.55;;;1.30;;
56141;SDS011;42018;48.588;10.836;2022-10-15T17:25:22;2.30;;;1.10;;
56141;SDS011;42018;48.588;10.836;2022-10-15T17:28:08;3.88;;;1.23;;
56141;SDS011;42018;48.588;10.836;2022-10-15T17:30:53;2.83;;;1.13;;
56141;SDS011;42018;48.588;10.836;2022-10-15T17:33:39;3.80;;;1.38;;
56141;SDS011;42018;48.588;10.836;2022-10-15T17:36:25;3.00;;;1.35;;
56141;SDS011;42018;48.588;10.836;2022-10-15T17:39:16;2.90;;;1.30;;
56141;SDS011;42018;48.588;10.836;2022-10-15T17:42:03;3.58;;;1.67;;
56141;SDS011;42018;48.588;10.836;2022-10-15T17:44:49;3.05;;;1.40;;
56141;SDS011;42018;48.588;10.836;2022-10-15T17:47:34;4.03;;;1.42;;
56141;SDS011;42018;48.588;10.836;2022-10-15T17:50:21;4.10;;;1.65;;
56141;SDS011;42018;48.588;10.836;2022-10-15T17:53:07;4.80;;;1.80;;
56141;SDS011;42018;48.588;10.836;2022-10-15T17:55:52;5.47;;;1.95;;
56141;SDS011;42018;48.588;10.836;2022-10-15T17:58:37;3.90;;;1.63;;
56141;SDS011;42018;48.588;10.836;2022-10-15T18:01:29;4.80;;;1.70;;
56141;SDS011;42018;48.588;10.836;2022-10-15T18:04:16;3.20;;;1.60;;
56141;SDS011;42018;48.588;10.836;2022-10-15T18:07:02;4.68;;;1.67;;
56141;SDS011;42018;48.588;10.836;2022-10-15T18:09:47;4.00;;;1.83;;
56141;SDS011;42018;48.588;10.836;2022-10-15T18:12:32;4.30;;;1.70;;
56141;SDS011;42018;48.588;10.836;2022-10-15T18:15:18;2.85;;;1.58;;
56141;SDS011;42018;48.588;10.836;2022-10-15T18:18:03;3.05;;;1.38;;
56141;SDS011;42018;48.588;10.836;2022-10-15T18:20:49;3.50;;;1.25;;
56141;SDS011;42018;48.588;10.836;2022-10-15T18:23:35;3.55;;;1.35;;
56141;SDS011;42018;48.588;10.836;2022-10-15T18:26:21;4.03;;;1.70;;
56141;SDS011;42018;48.588;10.836;2022-10-15T18:29:06;6.15;;;2.60;;
56141;SDS011;42018;48.588;10.836;2022-10-15T18:31:52;5.18;;;2.67;;
56141;SDS011;42018;48.588;10.836;2022-10-15T18:34:37;5.80;;;2.90;;
56141;SDS011;42018;48.588;10.836;2022-10-15T18:37:22;5.40;;;2.60;;
56141;SDS011;42018;48.588;10.836;2022-10-15T18:40:08;5.28;;;2.45;;
56141;SDS011;42018;48.588;10.836;2022-10-15T18:42:54;5.50;;;2.35;;
56141;SDS011;42018;48.588;10.836;2022-10-15T18:45:39;4.35;;;2.40;;
56141;SDS011;42018;48.588;10.836;2022-10-15T18:48:24;3.75;;;2.00;;